Aeroporto :
LOGIN :

Iscrizione | Disclaimer

   EN    FR    IT 

 










Sommario :    VFR   VFR Marginale   IFR   IFR Intensivo   IFR Molto Intensivo
Visibilità : 
Base nubi : 
>= 8 km
>= 3000ft
5 / 8 km
1000 / 3000 ft
1500m / 5 km
500 / 1000 ft
800 / 1500m
200 / 500 ft
< 800m
< 200 ft
Simboli :   Temporali  Nebbia  Neve Forte  Precipitazioni Forti  Vento > 20 kt
SIGMETs :   Varie  Temporali  Ghiacco  Turbolenza  Onda orograficha  Ceneri Vulcaniche






- Altitudine del aeroporto : 670 ft
- Codice IATA : MSQ


UMMS - Minsk - 2

ULTIMO METAR :
  • 271630Z 10003G06MPS CAVOK 16/06 Q1023 R31R/////// R31L/CLRD// NOSIG

METARs OBSOLETI :
  • 271622Z 10005MPS 9999 FEW060CB 16/05 Q1023 R31R/////// R31L/CLRD// NOSIG
  • 271600Z 04005G08MPS 9999 -SHRA SCT060CB 17/04 Q1023 R31R/////// R31L/CLRD// NOSIG
  • 271530Z 36003MPS CAVOK 18/04 Q1023 R31R/////// R31L/CLRD// NOSIG
  • 271500Z 01002MPS 300V110 CAVOK 19/05 Q1023 R31R/////// R31L/CLRD// NOSIG
  • 271430Z 04002MPS 350V080 CAVOK 19/03 Q1023 R31R/////// R31L/CLRD// NOSIG

TAF TAF UMMS
Valido dal 27 a 12 ore il 28 a 12 ore UTC


271100Z 2712/2812 02005G10MPS 9999 BKN035
TEMPO 2712/2720 VRB16MPS 1200 TSRA SQ BKN004 BKN030CB
TEMPO 2720/2805 36005MPS 1200 BR BKN004
BECMG 2805/2806 04005G10MPS
TEMPO 2809/2812 VRB14MPS 1500 TSRA SQ BKN005 BKN030CB



MetMap, La meteo Aeronautica in un colpo d'occhio ! - Copyright ORBIFLY Dicembre 2007 - Disclaimer

ORBIFLY MET'MAP TEAM :

Programmazione e sviluppo : Alexandra Zaïnal
Concezione : Baudouin d'Aumeries
Aiuto per la programmazione : Marc-Olivier Méhu
Supporto tecnico e logistico : Manuel Goepfert
Aiuto per la traduzione : Arnaldo La Scala

Contatto : metmap@orbifly.com




FONTI E CREDITI :

   NOAA